createdAt,value
2019-02-09T00:01:45.527Z,2.00
2019-02-09T00:04:14.835Z,1.50
2019-02-09T00:06:44.167Z,1.40
2019-02-09T00:09:13.491Z,1.67
2019-02-09T00:11:42.746Z,2.13
2019-02-09T00:14:12.001Z,1.97
2019-02-09T00:16:41.289Z,2.30
2019-02-09T00:19:10.540Z,2.23
2019-02-09T00:21:39.866Z,1.67
2019-02-09T00:24:09.119Z,1.93
2019-02-09T00:26:38.406Z,2.00
2019-02-09T00:29:07.676Z,1.93
2019-02-09T00:31:36.935Z,2.10
2019-02-09T00:34:07.446Z,1.77
2019-02-09T00:36:36.725Z,2.17
2019-02-09T00:39:07.937Z,1.97
2019-02-09T00:41:37.242Z,2.10
2019-02-09T00:44:06.514Z,2.20
2019-02-09T00:46:35.825Z,2.30
2019-02-09T00:49:05.122Z,1.97
2019-02-09T00:51:34.398Z,1.87
2019-02-09T00:54:03.673Z,2.73
2019-02-09T00:56:32.953Z,2.17
2019-02-09T00:59:02.228Z,2.50
2019-02-09T01:01:31.471Z,2.30
2019-02-09T01:04:00.743Z,1.73
2019-02-09T01:06:30.032Z,2.00
2019-02-09T01:08:59.519Z,1.60
2019-02-09T01:11:28.729Z,2.30
2019-02-09T01:13:58.036Z,2.03
2019-02-09T01:16:27.313Z,2.13
2019-02-09T01:18:56.647Z,1.80
2019-02-09T01:21:25.967Z,1.77
2019-02-09T01:23:55.251Z,2.23
2019-02-09T01:26:24.519Z,2.20
2019-02-09T01:28:53.786Z,1.80
2019-02-09T01:31:23.099Z,1.70
2019-02-09T01:33:52.348Z,2.30
2019-02-09T01:36:21.613Z,2.17
2019-02-09T01:38:50.940Z,1.83
2019-02-09T01:41:20.194Z,2.00
2019-02-09T01:43:49.467Z,2.20
2019-02-09T01:46:18.714Z,1.87
2019-02-09T01:48:47.994Z,2.13
2019-02-09T01:51:17.284Z,2.00
2019-02-09T01:53:46.554Z,1.90
2019-02-09T01:56:15.839Z,2.13
2019-02-09T01:58:45.095Z,2.00
2019-02-09T02:01:14.559Z,2.00
2019-02-09T02:03:43.831Z,2.27
2019-02-09T02:06:13.199Z,2.10
2019-02-09T02:08:42.445Z,1.97
2019-02-09T02:11:11.718Z,2.17
2019-02-09T02:13:40.991Z,1.70
2019-02-09T02:16:10.236Z,1.87
2019-02-09T02:18:39.506Z,2.37
2019-02-09T02:21:08.758Z,2.10
2019-02-09T02:23:38.059Z,1.87
2019-02-09T02:26:07.337Z,1.97
2019-02-09T02:28:36.578Z,2.03
2019-02-09T02:31:05.871Z,1.87
2019-02-09T02:33:35.125Z,1.97
2019-02-09T02:36:04.500Z,1.97
2019-02-09T02:38:33.750Z,1.47
2019-02-09T02:41:04.224Z,1.70
2019-02-09T02:43:33.498Z,2.40
2019-02-09T02:46:02.762Z,1.90
2019-02-09T02:48:32.983Z,2.03
2019-02-09T02:51:02.251Z,1.67
2019-02-09T02:53:31.524Z,1.67
2019-02-09T02:56:00.781Z,1.67
2019-02-09T02:58:30.075Z,1.40
2019-02-09T03:00:59.323Z,2.10
2019-02-09T03:03:28.608Z,2.17
2019-02-09T03:05:57.903Z,1.93
2019-02-09T03:08:27.145Z,1.83
2019-02-09T03:10:56.427Z,1.50
2019-02-09T03:13:25.696Z,1.57
2019-02-09T03:15:54.982Z,1.87
2019-02-09T03:18:24.243Z,2.23
2019-02-09T03:20:53.500Z,2.00
2019-02-09T03:23:22.773Z,2.20
2019-02-09T03:25:52.024Z,2.10
2019-02-09T03:28:21.344Z,2.00
2019-02-09T03:30:50.641Z,2.10
2019-02-09T03:33:19.879Z,2.13
2019-02-09T03:35:49.128Z,2.10
2019-02-09T03:38:18.392Z,2.10
2019-02-09T03:40:47.933Z,1.80
2019-02-09T03:43:18.298Z,2.27
2019-02-09T03:45:47.646Z,1.53
2019-02-09T03:48:16.895Z,1.87
2019-02-09T03:50:46.278Z,2.20
2019-02-09T03:53:15.527Z,2.07
2019-02-09T03:55:44.768Z,2.10
2019-02-09T03:58:14.036Z,1.90
2019-02-09T04:00:43.480Z,2.07
2019-02-09T04:03:12.828Z,2.40
2019-02-09T04:05:42.082Z,2.67
2019-02-09T04:08:11.652Z,2.57
2019-02-09T04:10:40.926Z,2.60
2019-02-09T04:13:10.170Z,1.90
2019-02-09T04:15:39.438Z,2.37
2019-02-09T04:18:08.683Z,2.13
2019-02-09T04:20:37.927Z,2.57
2019-02-09T04:23:07.194Z,2.17
2019-02-09T04:25:36.440Z,3.83
2019-02-09T04:28:05.802Z,3.60
2019-02-09T04:30:35.063Z,3.57
2019-02-09T04:33:04.345Z,2.80
2019-02-09T04:35:33.662Z,2.50
2019-02-09T04:38:02.937Z,3.20
2019-02-09T04:40:33.040Z,2.50
2019-02-09T04:43:02.282Z,2.53
2019-02-09T04:45:34.294Z,2.67
2019-02-09T04:48:03.550Z,1.97
2019-02-09T04:50:32.818Z,1.90
2019-02-09T04:53:02.084Z,2.60
2019-02-09T04:55:31.356Z,2.53
2019-02-09T04:58:00.602Z,2.43
2019-02-09T05:00:31.124Z,2.83
2019-02-09T05:03:00.368Z,3.33
2019-02-09T05:05:30.318Z,2.70
2019-02-09T05:07:59.568Z,2.40
2019-02-09T05:10:28.805Z,2.43
2019-02-09T05:12:58.083Z,2.63
2019-02-09T05:15:27.338Z,2.50
2019-02-09T05:17:56.611Z,2.47
2019-02-09T05:20:26.173Z,2.63
2019-02-09T05:22:55.586Z,2.93
2019-02-09T05:25:24.977Z,2.33
2019-02-09T05:27:54.223Z,2.77
2019-02-09T05:30:28.025Z,8.43
2019-02-09T05:33:00.361Z,5.80
2019-02-09T05:35:29.171Z,3.57
2019-02-09T05:37:58.416Z,3.33
2019-02-09T05:40:27.984Z,2.80
2019-02-09T05:42:57.255Z,2.30
2019-02-09T05:45:27.821Z,2.70
2019-02-09T05:47:57.116Z,3.03
2019-02-09T05:50:26.335Z,2.73
2019-02-09T05:52:55.800Z,2.60
2019-02-09T05:55:25.077Z,3.17
2019-02-09T05:57:54.331Z,2.90
2019-02-09T06:00:31.949Z,2.67
2019-02-09T06:03:01.185Z,3.20
2019-02-09T06:05:30.470Z,3.70
2019-02-09T06:07:59.758Z,3.70
2019-02-09T06:10:29.012Z,3.23
2019-02-09T06:12:58.278Z,3.03
2019-02-09T06:15:28.247Z,3.50
2019-02-09T06:17:57.524Z,3.17
2019-02-09T06:20:27.296Z,3.33
2019-02-09T06:22:56.949Z,3.60
2019-02-09T06:25:26.211Z,2.67
2019-02-09T06:27:55.864Z,2.70
2019-02-09T06:30:27.118Z,2.27
2019-02-09T06:32:56.658Z,2.30
2019-02-09T06:35:26.371Z,1.80
2019-02-09T06:37:55.816Z,1.77
2019-02-09T06:40:25.655Z,1.40
2019-02-09T06:42:54.931Z,1.47
2019-02-09T06:45:24.733Z,2.33
2019-02-09T06:47:54.011Z,2.07
2019-02-09T06:50:26.116Z,2.27
2019-02-09T06:52:55.360Z,1.70
2019-02-09T06:55:24.640Z,2.10
2019-02-09T06:57:53.890Z,2.10
2019-02-09T07:00:23.407Z,2.00
2019-02-09T07:02:54.459Z,2.10
2019-02-09T07:05:23.720Z,1.67
2019-02-09T07:07:52.982Z,1.90
2019-02-09T07:10:23.513Z,2.30
2019-02-09T07:12:52.957Z,1.90
2019-02-09T07:15:24.906Z,2.47
2019-02-09T07:17:54.201Z,2.00
2019-02-09T07:20:23.950Z,2.07
2019-02-09T07:22:53.227Z,1.87
2019-02-09T07:25:22.970Z,1.60
2019-02-09T07:27:52.328Z,1.70
2019-02-09T07:30:28.753Z,1.40
2019-02-09T07:32:58.826Z,1.50
2019-02-09T07:35:28.150Z,1.60
2019-02-09T07:37:57.714Z,1.70
2019-02-09T07:40:27.696Z,1.37
2019-02-09T07:42:56.993Z,1.43
2019-02-09T07:45:27.298Z,1.53
2019-02-09T07:47:56.678Z,1.47
2019-02-09T07:50:26.480Z,1.33
2019-02-09T07:52:55.764Z,1.57
2019-02-09T07:55:25.638Z,1.60
2019-02-09T07:57:54.914Z,1.30
2019-02-09T08:00:28.898Z,1.47
2019-02-09T08:03:03.755Z,1.57
2019-02-09T08:05:33.403Z,1.57
2019-02-09T08:08:02.690Z,1.60
2019-02-09T08:10:33.101Z,1.70
2019-02-09T08:13:02.750Z,1.70
2019-02-09T08:15:32.724Z,1.83
2019-02-09T08:18:02.333Z,1.40
2019-02-09T08:20:31.812Z,1.67
2019-02-09T08:23:02.226Z,2.03
2019-02-09T08:25:33.312Z,1.50
2019-02-09T08:28:04.653Z,1.73
2019-02-09T08:30:40.316Z,1.40
2019-02-09T08:33:09.964Z,2.03
2019-02-09T08:35:40.439Z,1.30
2019-02-09T08:38:11.391Z,1.37
2019-02-09T08:40:40.907Z,1.37
2019-02-09T08:43:10.161Z,1.60
2019-02-09T08:45:39.436Z,1.27
2019-02-09T08:48:08.946Z,1.40
2019-02-09T08:50:53.823Z,1.33
2019-02-09T08:53:23.067Z,1.07
2019-02-09T08:55:52.358Z,1.37
2019-02-09T08:58:21.609Z,1.20
2019-02-09T09:00:50.914Z,1.20
2019-02-09T09:03:20.217Z,1.37
2019-02-09T09:05:53.336Z,1.80
2019-02-09T09:08:24.394Z,1.20
2019-02-09T09:10:53.690Z,1.80
2019-02-09T09:13:22.985Z,1.20
2019-02-09T09:15:54.425Z,1.40
2019-02-09T09:18:23.670Z,1.47
2019-02-09T09:20:55.469Z,1.73
2019-02-09T09:23:24.774Z,1.80
2019-02-09T09:25:54.050Z,1.23
2019-02-09T09:28:23.333Z,1.40
2019-02-09T09:30:52.587Z,1.23
2019-02-09T09:33:21.875Z,1.30
2019-02-09T09:35:51.275Z,1.30
2019-02-09T09:38:20.868Z,1.30
2019-02-09T09:40:50.145Z,1.50
2019-02-09T09:43:20.521Z,1.40
2019-02-09T09:45:50.203Z,1.43
2019-02-09T09:48:20.329Z,1.80
2019-02-09T09:50:49.589Z,1.73
2019-02-09T09:53:18.886Z,1.30
2019-02-09T09:55:48.174Z,1.17
2019-02-09T09:58:17.964Z,1.10
2019-02-09T10:00:47.350Z,1.10
2019-02-09T10:03:16.678Z,1.00
2019-02-09T10:05:45.944Z,0.80
2019-02-09T10:08:15.256Z,1.00
2019-02-09T10:10:44.616Z,0.80
2019-02-09T10:13:13.939Z,0.90
2019-02-09T10:15:43.204Z,0.80
2019-02-09T10:18:12.560Z,0.90
2019-02-09T10:20:41.868Z,0.80
2019-02-09T10:23:11.164Z,0.80
2019-02-09T10:25:40.407Z,0.60
2019-02-09T10:28:09.802Z,0.87
2019-02-09T10:30:39.271Z,0.60
2019-02-09T10:33:08.549Z,0.70
2019-02-09T10:35:37.821Z,0.50
2019-02-09T10:38:07.121Z,0.50
2019-02-09T10:40:36.385Z,0.50
2019-02-09T10:43:07.711Z,0.90
2019-02-09T10:45:37.111Z,0.70
2019-02-09T10:48:08.833Z,0.60
2019-02-09T10:50:44.019Z,0.60
2019-02-09T10:53:13.378Z,0.80
2019-02-09T10:55:42.638Z,0.70
2019-02-09T10:58:11.963Z,0.50
2019-02-09T11:00:47.517Z,0.60
2019-02-09T11:03:17.982Z,0.67
2019-02-09T11:05:47.207Z,0.50
2019-02-09T11:08:16.851Z,0.50
2019-02-09T11:10:46.481Z,0.60
2019-02-09T11:13:15.742Z,0.60
2019-02-09T11:15:45.199Z,0.50
2019-02-09T11:18:14.475Z,0.40
2019-02-09T11:20:43.734Z,0.50
2019-02-09T11:23:13.087Z,0.50
2019-02-09T11:26:03.002Z,0.60
2019-02-09T11:28:32.903Z,0.60
2019-02-09T11:31:03.821Z,0.50
2019-02-09T11:33:33.539Z,0.50
2019-02-09T11:36:03.166Z,0.47
2019-02-09T11:38:32.578Z,1.00
2019-02-09T11:41:18.248Z,0.50
2019-02-09T11:43:57.913Z,0.60
2019-02-09T11:46:27.338Z,0.93
2019-02-09T11:48:56.595Z,0.90
2019-02-09T11:51:25.868Z,0.70
2019-02-09T11:53:55.273Z,0.60
2019-02-09T11:56:27.224Z,0.47
2019-02-09T11:58:57.707Z,0.40
2019-02-09T12:01:28.077Z,0.60
2019-02-09T12:03:58.654Z,0.50
2019-02-09T12:06:28.045Z,0.50
2019-02-09T12:08:57.450Z,0.60
2019-02-09T12:11:26.802Z,0.43
2019-02-09T12:13:56.276Z,0.80
2019-02-09T12:16:25.690Z,0.40
2019-02-09T12:18:55.191Z,0.57
2019-02-09T12:21:26.370Z,0.60
2019-02-09T12:23:57.168Z,0.50
2019-02-09T12:26:27.628Z,0.50
2019-02-09T12:28:57.100Z,0.60
2019-02-09T12:31:26.486Z,0.60
2019-02-09T12:33:57.159Z,0.60
2019-02-09T12:36:26.569Z,0.80
2019-02-09T12:38:55.971Z,0.60
2019-02-09T12:41:26.378Z,0.70
2019-02-09T12:43:56.132Z,0.67
2019-02-09T12:46:28.421Z,0.60
2019-02-09T12:48:58.268Z,0.80
2019-02-09T12:51:27.762Z,0.50
2019-02-09T12:54:00.730Z,0.63
2019-02-09T12:56:30.233Z,0.40
2019-02-09T12:59:00.077Z,0.60
2019-02-09T13:01:33.143Z,0.50
2019-02-09T13:04:02.583Z,0.50
2019-02-09T13:06:32.074Z,0.50
2019-02-09T13:09:03.750Z,0.47
2019-02-09T13:11:33.178Z,0.43
2019-02-09T13:14:03.858Z,0.93
2019-02-09T13:16:36.302Z,0.73
2019-02-09T13:19:06.742Z,0.50
2019-02-09T13:21:36.388Z,0.50
2019-02-09T13:24:08.150Z,0.53
2019-02-09T13:26:39.255Z,0.60
2019-02-09T13:29:10.441Z,0.60
2019-02-09T13:31:42.968Z,0.60
2019-02-09T13:34:13.412Z,0.60
2019-02-09T13:36:44.814Z,0.60
2019-02-09T13:39:17.222Z,0.80
2019-02-09T13:41:46.618Z,0.73
2019-02-09T13:44:17.163Z,0.50
2019-02-09T13:46:46.727Z,0.57
2019-02-09T13:49:17.169Z,0.70
2019-02-09T13:51:48.415Z,0.50
2019-02-09T13:54:18.896Z,0.73
2019-02-09T13:56:50.068Z,0.77
2019-02-09T13:59:20.961Z,0.77
2019-02-09T14:01:51.548Z,0.60
2019-02-09T14:04:22.897Z,0.80
2019-02-09T14:06:52.403Z,0.50
2019-02-09T14:09:21.747Z,0.60
2019-02-09T14:11:53.294Z,0.60
2019-02-09T14:14:22.701Z,0.60
2019-02-09T14:16:55.182Z,0.70
2019-02-09T14:19:27.027Z,0.57
2019-02-09T14:21:57.875Z,0.73
2019-02-09T14:24:29.178Z,0.60
2019-02-09T14:26:58.426Z,0.67
2019-02-09T14:29:27.741Z,0.80
2019-02-09T14:31:57.347Z,0.70
2019-02-09T14:34:26.762Z,0.80
2019-02-09T14:36:56.111Z,0.57
2019-02-09T14:39:25.406Z,0.70
2019-02-09T14:41:54.631Z,0.60
2019-02-09T14:44:23.900Z,1.17
2019-02-09T14:46:53.143Z,0.60
2019-02-09T14:49:22.417Z,0.80
2019-02-09T14:51:51.668Z,0.60
2019-02-09T14:54:20.921Z,1.00
2019-02-09T14:56:50.216Z,0.70
2019-02-09T14:59:19.484Z,0.90
2019-02-09T15:01:52.065Z,0.80
2019-02-09T15:04:21.660Z,0.80
2019-02-09T15:06:50.917Z,0.90
2019-02-09T15:09:22.007Z,0.90
2019-02-09T15:11:51.255Z,1.00
2019-02-09T15:14:20.547Z,1.00
2019-02-09T15:16:52.699Z,0.70
2019-02-09T15:19:25.471Z,0.77
2019-02-09T15:21:54.739Z,0.90
2019-02-09T15:24:23.982Z,1.20
2019-02-09T15:26:53.249Z,0.77
2019-02-09T15:29:22.543Z,1.27
2019-02-09T15:31:51.968Z,0.90
2019-02-09T15:34:21.222Z,0.70
2019-02-09T15:36:51.039Z,0.70
2019-02-09T15:39:20.327Z,0.73
2019-02-09T15:41:49.575Z,0.60
2019-02-09T15:44:18.882Z,0.87
2019-02-09T15:46:48.166Z,0.60
2019-02-09T15:49:17.413Z,0.60
2019-02-09T15:51:46.708Z,0.70
2019-02-09T15:54:15.954Z,0.67
2019-02-09T15:56:45.470Z,0.70
2019-02-09T15:59:15.681Z,0.90
2019-02-09T16:01:46.086Z,0.87
2019-02-09T16:04:17.837Z,1.40
2019-02-09T16:06:48.198Z,0.90
2019-02-09T16:09:19.438Z,0.97
2019-02-09T16:11:48.821Z,1.00
2019-02-09T16:14:19.319Z,1.00
2019-02-09T16:16:49.639Z,0.80
2019-02-09T16:19:18.900Z,1.03
2019-02-09T16:21:48.410Z,0.90
2019-02-09T16:24:19.365Z,0.80
2019-02-09T16:26:48.680Z,1.07
2019-02-09T16:29:17.938Z,1.70
2019-02-09T16:31:47.399Z,1.67
2019-02-09T16:34:16.704Z,3.23
2019-02-09T16:36:45.942Z,1.27
2019-02-09T16:39:15.190Z,1.30
2019-02-09T16:41:44.634Z,2.33
2019-02-09T16:44:13.900Z,2.20
2019-02-09T16:46:43.339Z,1.87
2019-02-09T16:49:12.597Z,2.70
2019-02-09T16:51:41.848Z,3.30
2019-02-09T16:54:12.283Z,2.37
2019-02-09T16:56:41.533Z,1.90
2019-02-09T16:59:10.897Z,2.27
2019-02-09T17:01:40.176Z,2.87
2019-02-09T17:04:12.530Z,1.40
2019-02-09T17:06:44.120Z,2.77
2019-02-09T17:09:14.256Z,3.30
2019-02-09T17:11:44.758Z,1.67
2019-02-09T17:14:15.995Z,2.07
2019-02-09T17:16:48.458Z,1.87
2019-02-09T17:19:18.267Z,1.90
2019-02-09T17:21:50.326Z,1.80
2019-02-09T17:24:20.309Z,1.60
2019-02-09T17:26:50.014Z,1.83
2019-02-09T17:29:21.100Z,1.50
2019-02-09T17:31:53.621Z,1.77
2019-02-09T17:34:22.858Z,1.70
2019-02-09T17:36:53.397Z,1.90
2019-02-09T17:39:22.660Z,1.73
2019-02-09T17:41:52.042Z,1.20
2019-02-09T17:44:21.310Z,1.23
2019-02-09T17:46:51.065Z,1.30
2019-02-09T17:49:20.321Z,1.70
2019-02-09T17:51:49.710Z,1.30
2019-02-09T17:54:18.981Z,1.27
2019-02-09T17:56:49.616Z,1.17
2019-02-09T17:59:20.667Z,3.60
2019-02-09T18:01:49.926Z,2.53
2019-02-09T18:04:19.233Z,1.70
2019-02-09T18:06:48.578Z,1.23
2019-02-09T18:09:18.221Z,1.20
2019-02-09T18:11:49.072Z,1.10
2019-02-09T18:14:18.850Z,1.17
2019-02-09T18:16:48.150Z,1.87
2019-02-09T18:19:19.238Z,2.47
2019-02-09T18:21:50.442Z,1.97
2019-02-09T18:24:21.407Z,2.20
2019-02-09T18:26:50.760Z,1.60
2019-02-09T18:29:20.032Z,1.47
2019-02-09T18:31:50.898Z,2.97
2019-02-09T18:34:21.395Z,3.90
2019-02-09T18:36:50.704Z,4.10
2019-02-09T18:39:19.951Z,3.20
2019-02-09T18:41:49.349Z,5.30
2019-02-09T18:44:18.653Z,4.67
2019-02-09T18:46:47.949Z,4.63
2019-02-09T18:49:17.243Z,4.43
2019-02-09T18:51:48.349Z,5.97
2019-02-09T18:54:17.652Z,3.10
2019-02-09T18:56:46.932Z,3.97
2019-02-09T18:59:16.266Z,2.30
2019-02-09T19:01:47.948Z,2.60
2019-02-09T19:04:19.383Z,1.80
2019-02-09T19:06:50.504Z,2.30
2019-02-09T19:09:22.581Z,2.20
2019-02-09T19:11:53.784Z,2.70
2019-02-09T19:14:24.674Z,4.57
2019-02-09T19:16:55.316Z,6.23
2019-02-09T19:19:26.420Z,5.83
2019-02-09T19:21:57.445Z,6.40
2019-02-09T19:24:28.290Z,7.30
2019-02-09T19:27:00.671Z,5.83
2019-02-09T19:29:30.788Z,4.80
2019-02-09T19:32:01.752Z,4.67
2019-02-09T19:34:31.367Z,1.97
2019-02-09T19:37:02.087Z,4.20
2019-02-09T19:39:33.573Z,4.40
2019-02-09T19:42:08.496Z,4.17
2019-02-09T19:44:41.910Z,3.40
2019-02-09T19:47:14.886Z,4.07
2019-02-09T19:49:47.178Z,2.50
2019-02-09T19:52:18.908Z,3.17
2019-02-09T19:54:51.573Z,3.20
2019-02-09T19:57:23.737Z,3.47
2019-02-09T19:59:53.557Z,2.27
2019-02-09T20:02:23.133Z,1.73
2019-02-09T20:04:53.163Z,1.80
2019-02-09T20:07:27.808Z,2.57
2019-02-09T20:09:58.209Z,2.03
2019-02-09T20:12:29.066Z,1.87
2019-02-09T20:15:00.041Z,2.63
2019-02-09T20:17:29.535Z,1.87
2019-02-09T20:19:59.363Z,2.13
2019-02-09T20:22:29.527Z,2.97
2019-02-09T20:24:59.129Z,2.50
2019-02-09T20:27:29.342Z,2.20
2019-02-09T20:29:58.787Z,1.70
2019-02-09T20:32:28.396Z,1.93
2019-02-09T20:34:57.706Z,1.20
2019-02-09T20:37:26.972Z,1.50
2019-02-09T20:39:57.946Z,1.57
2019-02-09T20:42:28.869Z,1.83
2019-02-09T20:44:58.280Z,1.90
2019-02-09T20:47:28.476Z,1.83
2019-02-09T20:49:58.215Z,1.90
2019-02-09T20:52:27.491Z,2.17
2019-02-09T20:54:56.828Z,2.50
2019-02-09T20:57:26.528Z,1.70
2019-02-09T20:59:55.824Z,1.90
2019-02-09T21:02:25.174Z,1.93
2019-02-09T21:04:54.468Z,2.17
2019-02-09T21:07:24.657Z,2.10
2019-02-09T21:09:54.106Z,3.23
2019-02-09T21:12:23.893Z,2.77
2019-02-09T21:14:53.175Z,2.47
2019-02-09T21:17:22.439Z,1.93
2019-02-09T21:19:51.734Z,2.20
2019-02-09T21:22:22.125Z,1.90
2019-02-09T21:24:51.404Z,2.23
2019-02-09T21:27:20.748Z,1.87
2019-02-09T21:29:50.052Z,2.27
2019-02-09T21:32:19.626Z,1.93
2019-02-09T21:34:48.960Z,1.83
2019-02-09T21:37:18.234Z,1.77
2019-02-09T21:39:47.543Z,2.00
2019-02-09T21:42:16.837Z,2.10
2019-02-09T21:44:46.499Z,1.87
2019-02-09T21:47:16.347Z,1.83
2019-02-09T21:49:45.607Z,1.40
2019-02-09T21:52:15.358Z,1.50
2019-02-09T21:54:45.277Z,1.60
2019-02-09T21:57:14.521Z,1.53
2019-02-09T21:59:43.904Z,1.67
2019-02-09T22:02:13.200Z,1.83
2019-02-09T22:04:42.517Z,1.97
2019-02-09T22:07:12.267Z,1.80
2019-02-09T22:09:41.557Z,1.90
2019-02-09T22:12:12.383Z,1.87
2019-02-09T22:14:41.874Z,2.00
2019-02-09T22:17:11.450Z,2.10
2019-02-09T22:19:41.637Z,2.27
2019-02-09T22:22:10.896Z,2.37
2019-02-09T22:24:40.146Z,3.20
2019-02-09T22:27:09.465Z,2.93
2019-02-09T22:29:38.771Z,2.53
2019-02-09T22:32:08.003Z,2.50
2019-02-09T22:34:37.358Z,1.80
2019-02-09T22:37:06.609Z,2.37
2019-02-09T22:39:36.729Z,1.93
2019-02-09T22:42:06.014Z,2.07
2019-02-09T22:44:36.132Z,2.00
2019-02-09T22:47:07.136Z,1.57
2019-02-09T22:49:36.702Z,1.87
2019-02-09T22:52:06.721Z,2.17
2019-02-09T22:54:35.978Z,2.80
2019-02-09T22:57:05.448Z,2.37
2019-02-09T22:59:34.730Z,2.07
2019-02-09T23:02:06.249Z,1.53
2019-02-09T23:05:06.886Z,1.60
2019-02-09T23:07:36.562Z,1.80
2019-02-09T23:10:13.845Z,1.77
2019-02-09T23:12:48.392Z,2.67
2019-02-09T23:15:14.203Z,2.13
2019-02-09T23:17:43.782Z,2.60
2019-02-09T23:20:13.199Z,1.70
2019-02-09T23:22:42.757Z,2.27
2019-02-09T23:25:12.026Z,1.93
2019-02-09T23:27:41.298Z,1.87
2019-02-09T23:30:13.034Z,2.40
2019-02-09T23:32:42.307Z,2.07
2019-02-09T23:35:11.907Z,1.97
2019-02-09T23:37:41.586Z,1.97
2019-02-09T23:40:10.898Z,2.03
2019-02-09T23:42:40.298Z,2.47
2019-02-09T23:45:09.799Z,1.80
2019-02-09T23:47:39.394Z,2.57
2019-02-09T23:50:09.075Z,2.27
2019-02-09T23:52:38.376Z,2.20
2019-02-09T23:55:08.126Z,2.23
2019-02-09T23:57:37.428Z,2.97
